PWSweather.com
Personal Weather Stations
Station Observations
BLACKWELL
Blackwell, AlfretonGB DE55

BlackwellAlfretonGB DE55

Lat: 53.12076, Lon: -1.354978

Elevation: 410

Station Type: Vantage Pro

High Low Average
Temperature 52.2°F11.2°C 42.4°F5.8°C 47.2°F8.4°C
Dew Point 45.5°F7.5°C 38.5°F3.6°C 41.0°F5.0°C
Winds 5.0 mph 8.0 kmh Calm Calm 3.0 mph SW4.8 kmh SW
Wind Gusts 15.0 mph24.1 kmh 2.0 mph3.2 kmh 9.0 mph14.5 kmh
Humidity 94% 62% 80%
Pressure 29.71 in1006.1 mb 29.39 in995.3 mb -
Precipitation 0.20 in5.1 mm - -
Hour Temp Dew Point Humidity Winds Wind Gusts Pressure Precip Precip Rate Daily Precip Total
12:44 AM 42.4°F5.8°C 39.9°F4.4°C 91% 4.0 mph WSW6.4 kmh WSW 10.0 mph16.1 kmh 29.71 in1006.1 mb 0.00 in0.0 mm 0.00 in0.0 mm 0.00 in0.0 mm
01:44 AM 43.2°F6.2°C 41.0°F5.0°C 92% 4.0 mph WSW6.4 kmh WSW 9.0 mph14.5 kmh 29.68 in1005.1 mb 0.01 in0.3 mm 0.00 in0.0 mm 0.01 in0.3 mm
02:44 AM 43.3°F6.3°C 41.5°F5.3°C 93% 3.0 mph WSW4.8 kmh WSW 11.0 mph17.7 kmh 29.62 in1003.0 mb 0.02 in0.5 mm 0.00 in0.0 mm 0.03 in0.8 mm
03:44 AM 43.7°F6.5°C 41.7°F5.4°C 93% 4.0 mph SW6.4 kmh SW 9.0 mph14.5 kmh 29.55 in1000.7 mb 0.03 in0.8 mm 0.00 in0.0 mm 0.06 in1.5 mm
04:44 AM 44.4°F6.9°C 42.4°F5.8°C 93% 5.0 mph SW8.0 kmh SW 15.0 mph24.1 kmh 29.47 in998.0 mb 0.04 in1.0 mm 0.00 in0.0 mm 0.10 in2.5 mm
05:44 AM 45.3°F7.4°C 43.3°F6.3°C 93% 4.0 mph SW6.4 kmh SW 10.0 mph16.1 kmh 29.42 in996.3 mb 0.02 in0.5 mm 0.00 in0.0 mm 0.12 in3.0 mm
06:44 AM 46.6°F8.1°C 44.6°F7.0°C 93% 5.0 mph SW8.0 kmh SW 12.0 mph19.3 kmh 29.40 in995.6 mb 0.03 in0.8 mm 0.00 in0.0 mm 0.15 in3.8 mm
07:44 AM 47.1°F8.4°C 45.5°F7.5°C 94% 4.0 mph SW6.4 kmh SW 8.0 mph12.9 kmh 29.39 in995.3 mb 0.04 in1.0 mm 0.00 in0.0 mm 0.19 in4.8 mm
08:44 AM 49.1°F9.5°C 44.2°F6.8°C 83% 4.0 mph SW6.4 kmh SW 13.0 mph20.9 kmh 29.42 in996.3 mb 0.02 in0.5 mm 0.00 in0.0 mm 0.20 in5.1 mm
09:44 AM 49.8°F9.9°C 42.6°F5.9°C 76% 3.0 mph SW4.8 kmh SW 10.0 mph16.1 kmh 29.45 in997.3 mb 0.00 in0.0 mm 0.00 in0.0 mm 0.20 in5.1 mm
10:44 AM 50.7°F10.4°C 41.7°F5.4°C 71% 3.0 mph SW4.8 kmh SW 11.0 mph17.7 kmh 29.47 in998.0 mb 0.00 in0.0 mm 0.00 in0.0 mm 0.20 in5.1 mm
11:44 AM 51.4°F10.8°C 41.5°F5.3°C 69% 3.0 mph SW4.8 kmh SW 10.0 mph16.1 kmh 29.50 in999.0 mb 0.00 in0.0 mm 0.00 in0.0 mm 0.20 in5.1 mm
12:44 PM 50.9°F10.5°C 39.2°F4.0°C 64% 3.0 mph SSW4.8 kmh SSW 9.0 mph14.5 kmh 29.54 in1000.3 mb 0.00 in0.0 mm 0.00 in0.0 mm 0.20 in5.1 mm
01:44 PM 52.2°F11.2°C 39.6°F4.2°C 62% 3.0 mph SW4.8 kmh SW 11.0 mph17.7 kmh 29.56 in1001.0 mb 0.00 in0.0 mm 0.00 in0.0 mm 0.20 in5.1 mm
02:44 PM 50.5°F10.3°C 38.5°F3.6°C 63% 3.0 mph SW4.8 kmh SW 14.0 mph22.5 kmh 29.59 in1002.0 mb 0.00 in0.0 mm 0.00 in0.0 mm 0.20 in5.1 mm
03:44 PM 49.1°F9.5°C 39.7°F4.3°C 70% 3.0 mph SW4.8 kmh SW 7.0 mph11.3 kmh 29.61 in1002.7 mb 0.00 in0.0 mm 0.00 in0.0 mm 0.20 in5.1 mm
04:44 PM 49.5°F9.7°C 39.4°F4.1°C 68% 3.0 mph SW4.8 kmh SW 9.0 mph14.5 kmh 29.63 in1003.4 mb 0.00 in0.0 mm 0.00 in0.0 mm 0.20 in5.1 mm
05:44 PM 47.5°F8.6°C 39.2°F4.0°C 73% 1.0 mph SW1.6 kmh SW 7.0 mph11.3 kmh 29.66 in1004.4 mb 0.00 in0.0 mm 0.00 in0.0 mm 0.20 in5.1 mm
06:44 PM 47.7°F8.7°C 39.7°F4.3°C 74% 3.0 mph SW4.8 kmh SW 7.0 mph11.3 kmh 29.68 in1005.1 mb 0.00 in0.0 mm 0.00 in0.0 mm 0.20 in5.1 mm
07:44 PM 46.9°F8.3°C 39.7°F4.3°C 76% 1.0 mph SW1.6 kmh SW 5.0 mph8.0 kmh 29.68 in1005.1 mb 0.00 in0.0 mm 0.00 in0.0 mm 0.20 in5.1 mm
08:44 PM 46.2°F7.9°C 39.7°F4.3°C 78% 1.0 mph SW1.6 kmh SW 4.0 mph6.4 kmh 29.67 in1004.7 mb 0.00 in0.0 mm 0.00 in0.0 mm 0.20 in5.1 mm
09:44 PM 45.7°F7.6°C 39.6°F4.2°C 79% Calm Calm 2.0 mph3.2 kmh 29.66 in1004.4 mb 0.00 in0.0 mm 0.00 in0.0 mm 0.20 in5.1 mm
10:44 PM 45.0°F7.2°C 39.9°F4.4°C 82% Calm Calm 2.0 mph3.2 kmh 29.65 in1004.1 mb 0.00 in0.0 mm 0.00 in0.0 mm 0.20 in5.1 mm
11:44 PM 45.0°F7.2°C 40.6°F4.8°C 85% 1.0 mph WSW1.6 kmh WSW 4.0 mph6.4 kmh 29.62 in1003.0 mb 0.00 in0.0 mm 0.00 in0.0 mm 0.20 in5.1 mm